Time;durP1;ratioP1;P1;durP2;ratioP2;P2;SDS_P1;SDS_P2;PMS_P1;PMS_P2;Temp;Humidity;BMP_temperature;BMP_pressure;BME280_temperature;BME280_humidity;BME280_pressure;Samples;Min_cycle;Max_cycle;Signal;HPM_P1;HPM_P2
2022/08/20 00:00:29;;;;;;;12.13;5.30;;;28.50;52.20;;;;;;5041765;28;86283;-51
2022/08/20 00:02:59;;;;;;;9.43;4.90;;;28.50;52.20;;;;;;5040610;28;89216;-50
2022/08/20 00:05:30;;;;;;;8.93;5.03;;;28.60;52.30;;;;;;5041245;28;88991;-50
2022/08/20 00:07:59;;;;;;;13.57;5.07;;;28.50;52.20;;;;;;5040717;28;87963;-50
2022/08/20 00:10:27;;;;;;;7.70;3.67;;;28.50;52.30;;;;;;5040072;28;87074;-50
2022/08/20 00:12:55;;;;;;;8.60;4.50;;;28.50;52.30;;;;;;5041303;28;89138;-50
2022/08/20 00:15:27;;;;;;;5.30;3.10;;;28.50;52.30;;;;;;5041711;28;88913;-52
2022/08/20 00:17:55;;;;;;;4.27;2.93;;;28.50;52.30;;;;;;5042244;28;87105;-50
2022/08/20 00:20:28;;;;;;;5.63;2.77;;;28.50;52.30;;;;;;5041544;28;87062;-50
2022/08/20 00:22:57;;;;;;;4.40;2.10;;;28.40;52.30;;;;;;5041479;28;89231;-50
2022/08/20 00:25:27;;;;;;;4.97;3.33;;;28.40;52.30;;;;;;5042049;28;87763;-50
2022/08/20 00:27:55;;;;;;;3.80;2.43;;;28.50;52.40;;;;;;5041819;28;87051;-50
2022/08/20 00:30:23;;;;;;;4.70;2.37;;;28.40;52.30;;;;;;5040533;28;86996;-50
2022/08/20 00:32:53;;;;;;;3.00;2.20;;;28.40;52.40;;;;;;5041242;28;88051;-50
2022/08/20 00:35:23;;;;;;;2.50;2.10;;;28.40;52.40;;;;;;5041257;28;89880;-50
2022/08/20 00:37:51;;;;;;;2.87;1.93;;;28.40;52.40;;;;;;5041893;28;87063;-52
2022/08/20 00:40:23;;;;;;;3.60;2.00;;;28.40;52.40;;;;;;5041843;28;87052;-52
2022/08/20 00:42:52;;;;;;;2.17;1.67;;;28.30;52.40;;;;;;5041508;28;88119;-52
2022/08/20 00:45:20;;;;;;;2.10;1.60;;;28.40;52.50;;;;;;5040994;28;87044;-52
2022/08/20 00:47:48;;;;;;;2.33;1.67;;;28.30;52.50;;;;;;5041746;28;87041;-52
2022/08/20 00:50:20;;;;;;;1.97;1.40;;;28.30;52.50;;;;;;5041313;28;86383;-53
2022/08/20 00:52:50;;;;;;;2.07;1.30;;;28.30;52.60;;;;;;5039711;28;89256;-52
2022/08/20 00:55:20;;;;;;;2.60;1.33;;;28.30;52.60;;;;;;5039126;28;87918;-52
2022/08/20 00:57:50;;;;;;;2.27;1.87;;;28.30;52.60;;;;;;5019004;28;88082;-52
2022/08/20 01:00:31;;;;;;;1.97;1.53;;;28.30;52.80;;;;;;5019594;28;87444;-52
2022/08/20 01:03:00;;;;;;;3.23;1.90;;;28.30;52.80;;;;;;5030953;28;89335;-52
2022/08/20 01:05:28;;;;;;;1.57;1.30;;;28.20;52.70;;;;;;5040553;28;89053;-52
2022/08/20 01:07:57;;;;;;;5.10;1.50;;;28.30;52.80;;;;;;5041382;28;86851;-52
2022/08/20 01:10:28;;;;;;;1.53;1.20;;;28.30;53.40;;;;;;5041139;28;87057;-51
2022/08/20 01:12:58;;;;;;;2.17;1.50;;;28.30;52.80;;;;;;5041226;28;89153;-52
2022/08/20 01:15:27;;;;;;;2.07;1.10;;;28.20;52.80;;;;;;5041182;28;87765;-49
2022/08/20 01:17:58;;;;;;;6.80;3.87;;;28.20;52.80;;;;;;5040934;28;87037;-50
2022/08/20 01:20:28;;;;;;;3.87;2.83;;;28.20;52.80;;;;;;5040861;28;86974;-50
2022/08/20 01:25:52;;;;;;;4.40;2.27;;;28.20;52.80;;;;;;5044626;28;90530;-50
2022/08/20 01:28:21;;;;;;;3.47;2.20;;;28.20;52.80;;;;;;5044524;28;86946;-50
2022/08/20 01:30:49;;;;;;;6.43;2.10;;;28.20;52.90;;;;;;5044625;28;87032;-50
2022/08/20 01:33:17;;;;;;;4.53;2.20;;;28.10;52.80;;;;;;5044631;28;89157;-50
2022/08/20 01:35:45;;;;;;;2.67;1.83;;;28.20;52.90;;;;;;5043536;28;88926;-50
2022/08/20 01:38:13;;;;;;;2.17;1.47;;;28.10;52.90;;;;;;5047039;27;87720;-50
2022/08/20 01:41:14;;;;;;;3.43;1.93;;;28.10;52.90;;;;;;5064923;27;86162;-50
2022/08/20 01:43:45;;;;;;;2.80;1.40;;;28.10;52.90;;;;;;5058095;27;88178;-50
2022/08/20 01:46:16;;;;;;;2.30;1.20;;;28.10;52.90;;;;;;5063931;27;88034;-51
2022/08/20 01:48:48;;;;;;;3.80;1.17;;;28.00;52.80;;;;;;5064233;27;87955;-51
2022/08/20 01:51:19;;;;;;;2.13;0.90;;;28.00;52.80;;;;;;5044480;28;87084;-51
2022/08/20 01:53:48;;;;;;;1.50;1.20;;;28.00;52.80;;;;;;5042937;28;89074;-50
2022/08/20 01:56:17;;;;;;;1.73;1.20;;;27.90;52.60;;;;;;5042371;27;87846;-51
2022/08/20 01:58:49;;;;;;;2.73;1.03;;;27.90;52.50;;;;;;5042508;28;87095;-51
2022/08/20 02:01:24;;;;;;;1.97;1.27;;;27.90;52.50;;;;;;5042683;28;87682;-50
2022/08/20 02:03:53;;;;;;;4.50;1.53;;;27.90;52.40;;;;;;5040055;28;89081;-50
2022/08/20 02:06:24;;;;;;;2.93;1.73;;;27.90;52.30;;;;;;5045727;27;88846;-51
2022/08/20 02:08:53;;;;;;;3.33;1.70;;;27.80;52.20;;;;;;5051719;27;86982;-51
2022/08/20 02:11:22;;;;;;;1.93;1.20;;;27.80;52.10;;;;;;5051505;27;87080;-50
2022/08/20 02:13:52;;;;;;;1.63;1.10;;;27.80;52.00;;;;;;5048407;27;90140;-51
2022/08/20 02:16:21;;;;;;;2.00;1.10;;;27.80;51.90;;;;;;5052122;27;87811;-50
2022/08/20 02:18:53;;;;;;;4.03;1.53;;;27.80;51.70;;;;;;5053480;27;87040;-50
2022/08/20 02:21:21;;;;;;;2.80;1.00;;;27.80;51.70;;;;;;5052786;27;87570;-50
2022/08/20 02:23:49;;;;;;;1.53;1.27;;;27.70;51.60;;;;;;5051381;27;89149;-50
2022/08/20 02:26:18;;;;;;;3.17;1.43;;;27.70;51.50;;;;;;5052960;27;88915;-50
2022/08/20 02:28:48;;;;;;;1.77;1.40;;;27.70;51.50;;;;;;5046590;27;87003;-50
2022/08/20 02:31:17;;;;;;;1.40;1.30;;;27.70;51.40;;;;;;5042264;28;86370;-51
2022/08/20 02:33:45;;;;;;;3.57;1.40;;;27.70;51.30;;;;;;5041002;27;89165;-51
2022/08/20 02:36:35;;;;;;;2.30;1.67;;;27.70;51.30;;;;;;5039984;28;87501;-51
2022/08/20 02:39:04;;;;;;;3.40;1.30;;;27.80;51.20;;;;;;5042503;28;88078;-51
2022/08/20 02:41:34;;;;;;;2.83;1.47;;;27.80;51.20;;;;;;5043128;28;87128;-51
2022/08/20 02:44:03;;;;;;;3.00;1.30;;;27.70;51.10;;;;;;5043889;28;89141;-50
2022/08/20 02:46:33;;;;;;;2.13;1.27;;;27.80;51.10;;;;;;5043124;28;88822;-51
2022/08/20 02:49:01;;;;;;;3.27;1.50;;;27.80;51.00;;;;;;5044290;28;87099;-51
2022/08/20 02:51:29;;;;;;;2.33;1.20;;;27.80;51.00;;;;;;5042696;28;86884;-50
2022/08/20 02:53:57;;;;;;;1.10;0.93;;;27.80;50.90;;;;;;5042814;28;89188;-50
2022/08/20 02:56:26;;;;;;;1.73;1.30;;;27.80;50.80;;;;;;5043554;28;86271;-51
2022/08/20 02:58:54;;;;;;;1.40;1.20;;;27.80;50.80;;;;;;5043478;28;87001;-50
2022/08/20 03:01:22;;;;;;;1.30;1.20;;;27.80;50.80;;;;;;5042995;28;86962;-50
2022/08/20 03:03:51;;;;;;;3.47;1.40;;;27.80;50.80;;;;;;5041287;28;90317;-50
2022/08/20 03:06:20;;;;;;;2.27;1.23;;;27.70;50.70;;;;;;5042597;28;89990;-50
2022/08/20 03:08:48;;;;;;;2.03;1.47;;;27.80;50.80;;;;;;5043382;28;86977;-51
2022/08/20 03:11:16;;;;;;;2.03;1.33;;;27.70;50.70;;;;;;5042218;28;87159;-50
2022/08/20 03:13:44;;;;;;;2.67;1.80;;;27.70;50.70;;;;;;5043162;28;89225;-51
2022/08/20 03:16:12;;;;;;;1.57;1.40;;;27.70;50.70;;;;;;5043236;28;87975;-50
2022/08/20 03:18:44;;;;;;;2.03;1.70;;;27.70;50.70;;;;;;5043171;28;86953;-50
2022/08/20 03:21:13;;;;;;;2.57;1.73;;;27.70;50.70;;;;;;5043522;28;86311;-51
2022/08/20 03:23:41;;;;;;;2.10;1.40;;;27.70;50.70;;;;;;5043064;28;89155;-50
2022/08/20 03:26:10;;;;;;;2.23;1.50;;;27.70;50.70;;;;;;5025074;28;87812;-50
2022/08/20 03:28:38;;;;;;;4.83;1.63;;;27.70;50.70;;;;;;5042276;28;87940;-50
2022/08/20 03:31:07;;;;;;;3.83;1.43;;;27.70;50.70;;;;;;5042862;28;87011;-50
2022/08/20 03:33:38;;;;;;;3.37;1.37;;;27.70;50.70;;;;;;5042694;28;88116;-50
2022/08/20 03:36:20;;;;;;;2.37;1.13;;;27.70;50.70;;;;;;5042638;28;87747;-50
2022/08/20 03:38:56;;;;;;;0.93;0.93;;;27.70;50.70;;;;;;5042427;28;87050;-51
2022/08/20 03:41:24;;;;;;;7.40;1.97;;;27.70;50.70;;;;;;5042638;28;87038;-51
2022/08/20 03:43:52;;;;;;;3.10;1.47;;;27.70;50.70;;;;;;5042212;28;88159;-51
2022/08/20 03:46:21;;;;;;;5.70;2.00;;;27.70;50.70;;;;;;5043049;28;87960;-51
2022/08/20 03:48:51;;;;;;;6.47;2.50;;;27.70;50.80;;;;;;5042448;28;87241;-51
2022/08/20 03:51:29;;;;;;;3.07;2.50;;;27.70;50.80;;;;;;5042749;28;86910;-51
2022/08/20 03:53:57;;;;;;;4.67;2.30;;;27.60;50.70;;;;;;5042373;28;89058;-51
2022/08/20 03:56:25;;;;;;;3.47;1.93;;;27.60;50.80;;;;;;5042094;28;88828;-51
2022/08/20 03:58:54;;;;;;;3.17;1.63;;;27.60;50.80;;;;;;5042485;28;87503;-51
2022/08/20 04:01:22;;;;;;;1.53;1.40;;;27.60;50.80;;;;;;5042387;28;87046;-51
2022/08/20 04:04:10;;;;;;;1.93;1.30;;;27.60;50.80;;;;;;5041598;28;87799;-51
2022/08/20 04:06:41;;;;;;;3.07;1.43;;;27.60;51.00;;;;;;5041400;28;88817;-51
2022/08/20 04:09:09;;;;;;;2.27;1.23;;;27.60;50.90;;;;;;5042175;28;87064;-51
2022/08/20 04:11:39;;;;;;;2.37;1.60;;;27.60;50.90;;;;;;5042579;28;86338;-51
2022/08/20 04:14:07;;;;;;;1.93;1.00;;;27.60;51.00;;;;;;5039937;28;88541;-51
2022/08/20 04:16:36;;;;;;;1.80;1.27;;;27.60;51.00;;;;;;5040168;28;87796;-51
2022/08/20 04:19:05;;;;;;;2.73;0.90;;;27.60;51.00;;;;;;5037717;28;88137;-52
2022/08/20 04:21:33;;;;;;;2.23;1.47;;;27.60;51.00;;;;;;5040375;28;86858;-51
2022/08/20 04:24:04;;;;;;;2.00;1.23;;;27.50;50.90;;;;;;5040778;28;89228;-51
2022/08/20 04:26:35;;;;;;;1.20;1.10;;;27.50;51.00;;;;;;5040535;28;88926;-51
2022/08/20 04:29:03;;;;;;;3.03;1.70;;;27.50;51.00;;;;;;5042122;28;86981;-51
2022/08/20 04:31:32;;;;;;;2.70;2.13;;;27.50;51.00;;;;;;5041893;28;87078;-50
2022/08/20 04:34:01;;;;;;;2.67;1.77;;;27.50;51.00;;;;;;5041228;28;89161;-51
2022/08/20 04:36:29;;;;;;;4.07;1.50;;;27.50;51.00;;;;;;5041670;28;88049;-50
2022/08/20 04:38:57;;;;;;;1.90;1.27;;;27.50;51.00;;;;;;5041600;28;87029;-50
2022/08/20 04:41:27;;;;;;;1.70;1.50;;;27.50;51.00;;;;;;5041196;28;86934;-51
2022/08/20 04:43:56;;;;;;;2.00;1.47;;;27.50;51.10;;;;;;5041336;28;90063;-50
2022/08/20 04:46:26;;;;;;;5.23;1.43;;;27.50;51.10;;;;;;5021834;28;88342;-50
2022/08/20 04:48:54;;;;;;;2.53;1.50;;;27.50;51.10;;;;;;5021804;28;87896;-50
2022/08/20 04:51:22;;;;;;;2.40;1.23;;;27.50;51.70;;;;;;5021888;28;87042;-50
2022/08/20 04:53:51;;;;;;;4.03;1.57;;;27.50;51.10;;;;;;5037717;28;89148;-50
2022/08/20 04:56:22;;;;;;;2.30;1.70;;;27.50;51.10;;;;;;5040970;27;88983;-50
2022/08/20 04:58:53;;;;;;;2.63;1.53;;;27.50;51.10;;;;;;5041942;28;87016;-50
2022/08/20 05:01:22;;;;;;;4.23;1.40;;;27.50;51.10;;;;;;5042188;28;86311;-50
2022/08/20 05:03:53;;;;;;;1.77;1.30;;;27.50;51.10;;;;;;5041313;28;89001;-50
2022/08/20 05:06:23;;;;;;;3.10;1.57;;;27.50;51.10;;;;;;5041121;28;89245;-50
2022/08/20 05:08:52;;;;;;;3.60;1.33;;;27.50;51.10;;;;;;5040937;28;87717;-50
2022/08/20 05:11:20;;;;;;;2.40;1.30;;;27.50;51.00;;;;;;5040810;28;87036;-50
2022/08/20 05:14:04;;;;;;;1.13;1.03;;;27.50;51.00;;;;;;5040806;28;88151;-50
2022/08/20 05:16:37;;;;;;;3.50;1.50;;;27.60;51.10;;;;;;5041467;28;87391;-50
2022/08/20 05:19:07;;;;;;;4.43;1.10;;;27.60;51.00;;;;;;5041621;28;87001;-51
2022/08/20 05:21:35;;;;;;;1.70;1.03;;;27.60;51.00;;;;;;5041447;28;87093;-50
2022/08/20 05:24:04;;;;;;;3.83;1.57;;;27.60;50.90;;;;;;5041279;28;87009;-51
2022/08/20 05:26:33;;;;;;;2.70;1.83;;;27.70;51.00;;;;;;5041939;28;88855;-51
2022/08/20 05:29:03;;;;;;;2.20;1.23;;;27.70;51.00;;;;;;5041700;28;87006;-51
2022/08/20 05:31:33;;;;;;;1.67;1.20;;;27.70;50.90;;;;;;5041271;28;87073;-51
2022/08/20 05:34:02;;;;;;;1.93;1.10;;;27.70;51.50;;;;;;5040927;28;89053;-50
2022/08/20 05:36:30;;;;;;;2.03;1.70;;;27.70;50.80;;;;;;5040885;28;87455;-51
2022/08/20 05:38:58;;;;;;;1.77;1.40;;;27.80;50.80;;;;;;5041142;28;86946;-51
2022/08/20 05:41:27;;;;;;;2.30;1.80;;;27.80;50.80;;;;;;5041149;28;87701;-51
2022/08/20 05:43:59;;;;;;;2.77;1.40;;;27.80;50.80;;;;;;5040894;28;88668;-51
2022/08/20 05:46:27;;;;;;;2.20;1.60;;;27.80;50.80;;;;;;5041003;28;88995;-51
2022/08/20 05:48:57;;;;;;;4.40;2.10;;;27.80;50.70;;;;;;5041452;28;86971;-51
2022/08/20 05:51:26;;;;;;;5.63;2.10;;;27.80;50.70;;;;;;5041256;28;86262;-51
2022/08/20 05:53:55;;;;;;;4.43;2.17;;;27.90;50.70;;;;;;5040687;28;89218;-52
2022/08/20 05:56:28;;;;;;;5.37;2.07;;;27.90;50.70;;;;;;5040136;28;87494;-51
2022/08/20 05:58:58;;;;;;;5.07;2.40;;;27.90;50.60;;;;;;5040141;28;87902;-51
2022/08/20 06:01:26;;;;;;;5.67;2.83;;;27.90;50.60;;;;;;5041096;28;87071;-51
2022/08/20 06:06:41;;;;;;;4.77;2.53;;;27.90;50.60;;;;;;5039901;28;87815;-51
2022/08/20 06:09:13;;;;;;;3.73;2.70;;;27.90;50.50;;;;;;5043006;28;87032;-50
2022/08/20 06:11:41;;;;;;;4.67;2.63;;;28.00;50.60;;;;;;5043949;28;87041;-51
2022/08/20 06:14:09;;;;;;;3.37;2.20;;;28.00;50.60;;;;;;5043467;28;88292;-51
2022/08/20 06:16:37;;;;;;;6.00;2.37;;;28.00;50.50;;;;;;5044570;28;89118;-51
2022/08/20 06:19:05;;;;;;;3.10;2.23;;;28.00;50.50;;;;;;5043798;28;87024;-51
2022/08/20 06:21:38;;;;;;;3.97;2.10;;;28.00;50.30;;;;;;5044221;28;87214;-51
2022/08/20 06:24:08;;;;;;;2.57;1.77;;;28.00;50.30;;;;;;5042884;28;90095;-51
2022/08/20 06:26:36;;;;;;;4.73;2.37;;;28.00;50.20;;;;;;5043851;28;89907;-51
2022/08/20 06:29:04;;;;;;;1.40;1.10;;;28.00;50.20;;;;;;5044243;28;87467;-52
2022/08/20 06:31:33;;;;;;;2.67;1.70;;;28.00;50.10;;;;;;5044018;28;86933;-51
2022/08/20 06:34:01;;;;;;;3.17;1.43;;;28.00;50.00;;;;;;5043533;28;89395;-52
2022/08/20 06:36:29;;;;;;;4.00;1.80;;;28.00;49.90;;;;;;5043509;28;89535;-51
2022/08/20 06:38:57;;;;;;;2.23;1.60;;;28.00;49.80;;;;;;5042583;28;87124;-50
2022/08/20 06:41:27;;;;;;;3.73;1.47;;;28.00;49.70;;;;;;5043943;28;86321;-50
2022/08/20 06:44:04;;;;;;;4.27;1.63;;;28.10;49.70;;;;;;5043400;28;89196;-50
2022/08/20 06:46:32;;;;;;;2.07;1.57;;;28.10;49.60;;;;;;5043254;28;89032;-51
2022/08/20 06:49:00;;;;;;;2.47;1.33;;;28.10;50.10;;;;;;5043239;28;87741;-51
2022/08/20 06:51:28;;;;;;;3.13;1.33;;;28.10;49.40;;;;;;5043407;28;87296;-50
2022/08/20 06:53:56;;;;;;;2.50;1.37;;;28.10;49.20;;;;;;5043846;28;87885;-52
2022/08/20 06:56:25;;;;;;;1.83;1.33;;;28.10;49.00;;;;;;5043373;28;88939;-50
2022/08/20 06:58:53;;;;;;;2.93;1.33;;;28.10;48.90;;;;;;5043761;28;87125;-50
2022/08/20 07:01:21;;;;;;;2.43;1.20;;;28.10;48.80;;;;;;5043531;28;87025;-51
2022/08/20 07:03:49;;;;;;;1.80;1.30;;;28.10;48.70;;;;;;5042983;28;88129;-51
2022/08/20 07:06:24;;;;;;;4.97;1.73;;;28.10;49.20;;;;;;5043256;28;88960;-51
2022/08/20 07:08:52;;;;;;;1.93;1.40;;;28.10;48.40;;;;;;5043565;28;87049;-51
2022/08/20 07:11:20;;;;;;;1.47;1.10;;;28.10;48.30;;;;;;5042805;28;87274;-51
2022/08/20 07:13:56;;;;;;;5.17;1.50;;;28.10;48.20;;;;;;5042308;28;89460;-50
2022/08/20 07:16:25;;;;;;;2.50;1.00;;;28.10;48.10;;;;;;5043004;28;89842;-50
2022/08/20 07:18:53;;;;;;;4.80;1.50;;;28.10;48.00;;;;;;5043095;28;86846;-51
2022/08/20 07:21:21;;;;;;;2.80;1.20;;;28.10;47.90;;;;;;5042243;28;88590;-51
2022/08/20 07:23:49;;;;;;;1.90;1.40;;;28.10;47.80;;;;;;5042144;28;89088;-51
2022/08/20 07:26:17;;;;;;;4.00;1.00;;;28.00;47.60;;;;;;5041641;28;87764;-51
2022/08/20 07:28:45;;;;;;;3.23;1.20;;;28.10;47.50;;;;;;5042470;28;87038;-51
2022/08/20 07:34:02;;;;;;;1.57;1.33;;;28.00;47.90;;;;;;5042911;28;87900;-50
2022/08/20 07:36:30;;;;;;;2.47;1.43;;;28.00;47.10;;;;;;5041816;28;88839;-51
2022/08/20 07:38:58;;;;;;;1.97;0.87;;;28.00;47.10;;;;;;5039646;28;88317;-51
2022/08/20 07:41:33;;;;;;;2.50;1.10;;;28.00;47.00;;;;;;5039401;28;87597;-52
2022/08/20 07:44:01;;;;;;;2.40;1.43;;;28.10;46.90;;;;;;5039539;27;89280;-50
2022/08/20 07:46:31;;;;;;;1.27;1.17;;;28.10;46.90;;;;;;5040794;28;88920;-50
2022/08/20 07:48:59;;;;;;;1.37;1.00;;;28.10;46.70;;;;;;5038319;28;87861;-51
2022/08/20 07:51:27;;;;;;;2.53;1.40;;;28.10;46.70;;;;;;5040484;28;87049;-50
2022/08/20 07:53:57;;;;;;;2.33;1.20;;;28.10;46.60;;;;;;5040505;28;89361;-51
2022/08/20 07:56:25;;;;;;;2.83;1.10;;;28.10;46.50;;;;;;5040954;28;87741;-50
2022/08/20 07:58:57;;;;;;;4.63;1.50;;;28.10;46.40;;;;;;5041936;28;86947;-51
2022/08/20 08:01:28;;;;;;;1.23;1.13;;;28.10;46.20;;;;;;5040705;28;87339;-54
2022/08/20 08:03:57;;;;;;;3.50;1.03;;;28.10;46.20;;;;;;5040573;28;89998;-53
2022/08/20 08:06:26;;;;;;;1.83;1.30;;;28.10;46.10;;;;;;5040393;28;89716;-52
2022/08/20 08:08:59;;;;;;;7.30;1.77;;;28.10;46.00;;;;;;5040318;28;87009;-54
2022/08/20 08:11:28;;;;;;;3.80;2.03;;;28.10;45.80;;;;;;5040352;28;86945;-51
2022/08/20 08:13:56;;;;;;;2.43;1.37;;;28.10;45.70;;;;;;5039579;28;88040;-51
2022/08/20 08:16:24;;;;;;;2.17;0.90;;;28.20;45.50;;;;;;5040918;28;87951;-51
2022/08/20 08:18:55;;;;;;;2.53;1.80;;;28.20;45.30;;;;;;5040406;28;87040;-52
2022/08/20 08:21:25;;;;;;;5.83;2.73;;;28.20;45.20;;;;;;5040879;28;86372;-51
2022/08/20 08:23:53;;;;;;;3.10;1.40;;;28.10;45.00;;;;;;5040032;28;89116;-51
2022/08/20 08:26:21;;;;;;;2.63;1.00;;;28.10;44.80;;;;;;5038804;28;87774;-52
2022/08/20 08:28:50;;;;;;;2.53;1.33;;;28.10;44.70;;;;;;5031874;28;89278;-52
2022/08/20 08:31:18;;;;;;;3.17;1.73;;;28.10;44.50;;;;;;5039131;28;87004;-52
2022/08/20 08:33:46;;;;;;;2.53;1.57;;;28.10;44.40;;;;;;5036999;28;88225;-52
2022/08/20 08:36:15;;;;;;;1.70;1.10;;;28.10;44.30;;;;;;5039483;28;87887;-53
2022/08/20 08:38:45;;;;;;;4.27;1.50;;;28.10;44.30;;;;;;5036577;28;87051;-53
2022/08/20 08:41:17;;;;;;;2.03;1.30;;;28.10;44.10;;;;;;5037107;28;87475;-52
2022/08/20 08:43:46;;;;;;;3.67;1.93;;;28.10;44.10;;;;;;5037757;28;89173;-52
2022/08/20 08:46:17;;;;;;;9.43;2.40;;;28.10;43.90;;;;;;5041332;28;88935;-52
2022/08/20 08:48:47;;;;;;;4.07;2.13;;;28.10;43.90;;;;;;5041414;28;87052;-53
2022/08/20 08:51:16;;;;;;;4.23;2.03;;;28.10;43.90;;;;;;5041785;28;87095;-51
2022/08/20 08:53:47;;;;;;;4.60;1.20;;;28.10;43.90;;;;;;5040842;28;90152;-51
2022/08/20 08:56:15;;;;;;;2.77;1.20;;;28.10;43.80;;;;;;5041276;28;90044;-51
2022/08/20 08:58:43;;;;;;;2.57;1.23;;;28.10;43.70;;;;;;5041133;28;86896;-51
2022/08/20 09:01:12;;;;;;;3.30;0.87;;;28.10;43.60;;;;;;5041404;28;87102;-51
2022/08/20 09:04:01;;;;;;;5.03;1.20;;;28.10;44.20;;;;;;5037759;28;90386;-51
2022/08/20 09:06:29;;;;;;;1.50;1.33;;;28.10;43.40;;;;;;5039592;28;87947;-52
2022/08/20 09:09:00;;;;;;;1.60;1.13;;;28.10;44.10;;;;;;5039856;28;86977;-51
2022/08/20 09:11:28;;;;;;;2.00;1.10;;;28.00;43.40;;;;;;5041132;28;86725;-51
2022/08/20 09:13:57;;;;;;;1.57;0.80;;;28.10;44.10;;;;;;5045956;27;87213;-51
2022/08/20 09:16:26;;;;;;;2.33;0.90;;;28.10;43.30;;;;;;5060618;27;87999;-51
2022/08/20 09:19:04;;;;;;;3.23;1.10;;;28.10;43.30;;;;;;5060737;27;87887;-51
2022/08/20 09:21:32;;;;;;;1.80;1.10;;;28.10;43.30;;;;;;5061564;27;87170;-51
2022/08/20 09:24:01;;;;;;;1.73;0.87;;;28.20;43.40;;;;;;5056351;27;89090;-52
2022/08/20 09:26:29;;;;;;;4.37;1.07;;;28.10;43.30;;;;;;5040923;28;88934;-51
2022/08/20 09:28:57;;;;;;;2.40;1.00;;;28.10;43.30;;;;;;5041208;28;87380;-52
2022/08/20 09:31:25;;;;;;;1.90;0.80;;;28.10;43.30;;;;;;5040716;28;87870;-53
2022/08/20 09:33:54;;;;;;;1.30;0.90;;;28.10;43.30;;;;;;5039565;28;89175;-51
2022/08/20 09:36:22;;;;;;;1.63;1.30;;;28.10;43.30;;;;;;5040704;28;88861;-52
2022/08/20 09:38:58;;;;;;;2.70;1.30;;;28.10;43.30;;;;;;5038874;27;87218;-52
2022/08/20 09:41:28;;;;;;;0.80;0.80;;;28.10;43.20;;;;;;5039806;28;87028;-52
2022/08/20 09:43:56;;;;;;;1.67;0.70;;;28.10;43.20;;;;;;5045771;27;88837;-53
2022/08/20 09:46:25;;;;;;;0.97;0.77;;;28.10;43.10;;;;;;5064772;27;89792;-52
2022/08/20 09:48:54;;;;;;;1.93;0.70;;;28.10;43.00;;;;;;5064306;27;87058;-52
2022/08/20 09:51:23;;;;;;;1.40;0.80;;;28.10;42.90;;;;;;5064920;27;87116;-53
2022/08/20 09:53:51;;;;;;;1.90;0.83;;;28.10;42.90;;;;;;5064591;27;88076;-53
2022/08/20 09:56:19;;;;;;;3.33;1.20;;;28.10;42.80;;;;;;5064637;27;87924;-53
2022/08/20 09:58:50;;;;;;;3.00;0.83;;;28.10;42.70;;;;;;5064748;27;86772;-51
2022/08/20 10:01:18;;;;;;;3.43;1.20;;;28.10;42.70;;;;;;5064909;27;86255;-52
2022/08/20 10:03:48;;;;;;;0.83;0.73;;;28.10;42.70;;;;;;5064143;27;88186;-52
2022/08/20 10:06:16;;;;;;;2.90;1.17;;;28.10;43.40;;;;;;5064059;27;87958;-52
2022/08/20 10:08:44;;;;;;;3.30;1.20;;;28.10;42.70;;;;;;5063392;27;88038;-51
2022/08/20 10:11:12;;;;;;;4.13;0.90;;;28.10;43.40;;;;;;5063692;27;86981;-52
2022/08/20 10:13:40;;;;;;;1.27;0.73;;;28.10;42.70;;;;;;5063925;27;88139;-53
2022/08/20 10:16:10;;;;;;;1.60;0.90;;;28.10;42.70;;;;;;5064538;27;88152;-53
2022/08/20 10:18:38;;;;;;;3.20;1.13;;;28.10;42.70;;;;;;5064466;27;87601;-52
2022/08/20 10:21:09;;;;;;;6.00;1.23;;;28.10;42.70;;;;;;5064041;27;87107;-52
2022/08/20 10:23:37;;;;;;;2.30;1.03;;;28.10;42.70;;;;;;5063689;27;89150;-51
2022/08/20 10:26:06;;;;;;;5.93;2.63;;;28.10;42.70;;;;;;5063156;27;87818;-51
2022/08/20 10:28:34;;;;;;;8.27;3.30;;;28.10;42.70;;;;;;5062969;27;87001;-52
2022/08/20 10:31:03;;;;;;;4.40;2.47;;;28.10;42.70;;;;;;5063246;27;87062;-53
2022/08/20 10:33:34;;;;;;;4.87;2.70;;;28.10;42.70;;;;;;5062772;27;89244;-53
2022/08/20 10:36:06;;;;;;;4.30;2.50;;;28.10;42.60;;;;;;5063228;27;88744;-52
2022/08/20 10:38:34;;;;;;;4.30;2.30;;;28.10;42.60;;;;;;5063502;27;87087;-53
2022/08/20 10:41:02;;;;;;;4.10;1.60;;;28.20;42.60;;;;;;5063837;27;87602;-52
2022/08/20 10:43:30;;;;;;;2.40;1.77;;;28.20;42.50;;;;;;5063317;27;89188;-52
2022/08/20 10:45:59;;;;;;;3.53;1.30;;;28.20;42.40;;;;;;5063477;27;87823;-52
2022/08/20 10:48:27;;;;;;;4.50;0.83;;;28.20;42.40;;;;;;5063625;27;87022;-52
2022/08/20 10:50:56;;;;;;;1.90;0.77;;;28.30;42.30;;;;;;5064332;27;86341;-53
2022/08/20 10:53:24;;;;;;;0.90;0.60;;;28.30;42.30;;;;;;5063692;27;89260;-52
2022/08/20 10:55:52;;;;;;;1.60;0.60;;;28.30;42.20;;;;;;5062512;27;87961;-52
2022/08/20 10:58:20;;;;;;;3.27;0.60;;;28.30;42.20;;;;;;5063667;27;88016;-52
2022/08/20 11:00:50;;;;;;;1.00;0.90;;;28.30;42.10;;;;;;5063207;27;87090;-52
2022/08/20 11:03:18;;;;;;;1.13;0.70;;;28.30;42.10;;;;;;5063518;27;88169;-51
2022/08/20 11:05:46;;;;;;;1.73;0.97;;;28.30;42.20;;;;;;5063386;27;88997;-52
2022/08/20 11:08:16;;;;;;;4.23;0.70;;;28.30;42.10;;;;;;5064128;27;87011;-52
2022/08/20 11:11:01;;;;;;;1.90;0.93;;;28.30;42.10;;;;;;5062963;27;87637;-52
2022/08/20 11:13:29;;;;;;;0.40;0.40;;;28.30;42.10;;;;;;5063357;27;88160;-52
2022/08/20 11:15:57;;;;;;;0.90;0.47;;;28.30;42.10;;;;;;5063263;27;89017;-52
2022/08/20 11:18:25;;;;;;;4.43;0.93;;;28.40;42.20;;;;;;5063562;27;86938;-52
2022/08/20 11:20:53;;;;;;;6.37;0.60;;;28.40;42.20;;;;;;5063358;27;86997;-51
2022/08/20 11:23:22;;;;;;;0.70;0.40;;;28.40;42.30;;;;;;5062467;27;89195;-52
2022/08/20 11:25:50;;;;;;;0.50;0.50;;;28.40;42.80;;;;;;5062447;27;90027;-51
2022/08/20 11:28:18;;;;;;;0.57;0.40;;;28.40;42.30;;;;;;5062733;27;87212;-52
2022/08/20 11:30:59;;;;;;;0.50;0.50;;;28.40;42.30;;;;;;5062684;27;87081;-51
2022/08/20 11:33:27;;;;;;;1.40;0.30;;;28.40;42.40;;;;;;5062577;27;88142;-52
2022/08/20 11:35:55;;;;;;;2.17;0.60;;;28.50;42.50;;;;;;5062549;27;89081;-52
2022/08/20 11:38:24;;;;;;;1.80;0.50;;;28.50;42.50;;;;;;5062585;27;87078;-52
2022/08/20 11:40:52;;;;;;;2.53;0.60;;;28.40;42.50;;;;;;5062868;27;86321;-52
2022/08/20 11:43:20;;;;;;;3.13;0.90;;;28.40;42.50;;;;;;5063046;27;88160;-52
2022/08/20 11:45:49;;;;;;;5.23;0.80;;;28.40;42.60;;;;;;5062797;27;89088;-52
2022/08/20 11:48:17;;;;;;;0.70;0.70;;;28.40;42.80;;;;;;5062926;27;88593;-52
2022/08/20 11:50:45;;;;;;;0.97;0.70;;;28.40;42.90;;;;;;5062865;27;87116;-51
2022/08/20 11:53:13;;;;;;;4.00;0.50;;;28.40;43.10;;;;;;5062397;27;88280;-53
2022/08/20 11:55:43;;;;;;;0.63;0.33;;;28.30;43.10;;;;;;5062379;27;87771;-51
2022/08/20 11:58:11;;;;;;;0.50;0.40;;;28.30;43.20;;;;;;5062892;27;87053;-52
2022/08/20 12:00:39;;;;;;;0.50;0.50;;;28.30;43.30;;;;;;5062655;27;87054;-52
2022/08/20 12:03:07;;;;;;;4.20;1.00;;;28.30;43.30;;;;;;5062042;27;89172;-51
2022/08/20 12:05:37;;;;;;;1.43;1.13;;;28.30;43.40;;;;;;5062458;27;88961;-51
2022/08/20 12:08:05;;;;;;;2.70;1.40;;;28.30;43.40;;;;;;5062810;27;87030;-52
2022/08/20 12:10:35;;;;;;;2.70;1.40;;;28.30;43.50;;;;;;5062077;27;87106;-52
2022/08/20 12:13:05;;;;;;;1.73;1.30;;;28.30;43.50;;;;;;5061797;27;89104;-52
2022/08/20 12:15:35;;;;;;;1.50;1.03;;;28.40;43.50;;;;;;5062008;27;89937;-51
2022/08/20 12:18:06;;;;;;;3.00;1.13;;;28.40;43.50;;;;;;5062465;27;87090;-51
2022/08/20 12:20:34;;;;;;;3.23;1.00;;;28.40;43.60;;;;;;5062245;27;87065;-51
2022/08/20 12:23:02;;;;;;;1.20;0.80;;;28.30;43.50;;;;;;5062246;27;89114;-51
2022/08/20 12:25:30;;;;;;;7.57;1.00;;;28.30;43.50;;;;;;5062130;27;88953;-51
2022/08/20 12:27:59;;;;;;;2.80;1.20;;;28.30;43.50;;;;;;5062675;27;86924;-51
2022/08/20 12:30:29;;;;;;;2.53;0.50;;;28.30;43.60;;;;;;5062445;27;86286;-51
2022/08/20 12:32:58;;;;;;;2.77;0.70;;;28.30;44.20;;;;;;5044391;27;88049;-51
2022/08/20 12:35:26;;;;;;;3.93;0.93;;;28.30;43.50;;;;;;5061982;27;87850;-52
2022/08/20 12:37:54;;;;;;;1.50;0.80;;;28.40;43.70;;;;;;5061841;27;87903;-52
2022/08/20 12:40:26;;;;;;;1.13;0.60;;;28.40;43.60;;;;;;5062215;27;87096;-52
2022/08/20 12:42:59;;;;;;;2.00;0.70;;;28.40;43.60;;;;;;5061792;27;87989;-51
2022/08/20 12:45:29;;;;;;;2.63;0.47;;;28.50;43.70;;;;;;5061707;27;88905;-52
2022/08/20 12:48:00;;;;;;;2.80;0.77;;;28.50;44.30;;;;;;5061782;27;86930;-52
2022/08/20 12:50:28;;;;;;;0.60;0.60;;;28.50;43.60;;;;;;5061922;27;86845;-52
2022/08/20 12:52:59;;;;;;;4.00;0.60;;;28.50;43.50;;;;;;5061237;27;89266;-52
2022/08/20 12:55:27;;;;;;;1.23;0.50;;;28.50;44.20;;;;;;5061358;27;89035;-51
2022/08/20 12:57:58;;;;;;;1.53;0.67;;;28.50;43.50;;;;;;5041415;27;86917;-52
2022/08/20 13:00:29;;;;;;;1.40;0.50;;;28.50;43.60;;;;;;5041764;28;87096;-52
2022/08/20 13:02:59;;;;;;;0.40;0.40;;;28.50;44.20;;;;;;5040598;28;90205;-51
2022/08/20 13:05:27;;;;;;;1.00;0.50;;;28.50;43.60;;;;;;5041015;28;89919;-51
2022/08/20 13:07:55;;;;;;;2.43;0.50;;;28.50;43.60;;;;;;5041293;28;87151;-52